Aeroporto :







RITROVATECI SU...

 
LOGIN :

Iscrizione | Disclaimer

   EN    FR    IT 

 









Sommario :    VFR   VFR Marginale   IFR   IFR Intensivo   IFR Molto Intensivo
Visibilità : 
Base nubi : 
>= 8 km
>= 3000ft
5 / 8 km
1000 / 3000 ft
1500m / 5 km
500 / 1000 ft
800 / 1500m
200 / 500 ft
< 800m
< 200 ft
Simboli :   Temporali  Nebbia  Neve Forte  Precipitazioni Forti  Vento > 20 kt






- Altitudine del aeroporto : 1709 ft
- Codice IATA : YKL


CYKL - Schefferville

ULTIMO METAR :
  • 171200Z AUTO VRB03KT 8SM CLR M28/M32 A2979 RMK SLP152

METARs OBSOLETI :
  • 171100Z AUTO VRB02KT 8SM CLR M29/M32 A2977 RMK SLP144
  • 171000Z AUTO 31004KT 240V020 9SM CLR M28/M31 A2975 RMK SLP135
  • 170929Z AUTO 33007KT 290V360 9SM SCT010 M28/M31 A2973 RMK SLP128
  • 170918Z AUTO 32006KT 280V340 6SM HZ BKN010 M27/M31 A2973 RMK SLP126

TAF TAF CYKL
Valido dal 17 a 08 ore il 17 a 20 ore UTC


170738Z 1708/1720 VRB03KT 6SM HZ SCT010
TEMPO 1708/1713 2SM IC
FM171300 27010KT P6SM SCT010
TEMPO 1713/1720 3SM HZ RMK FCST BASED ON AUTO OBS. NXT FCST BY 171400Z



MetMap, La meteo Aeronautica in un colpo d'occhio ! - Copyright ORBIFLY Dicembre 2007 - Disclaimer

ORBIFLY MET'MAP TEAM :

Programmazione e sviluppo : Alexandra Zaïnal
Concezione : Baudouin d'Aumeries
Aiuto per la programmazione : Marc-Olivier Méhu
Supporto tecnico e logistico : Manuel Goepfert
Aiuto per la traduzione : Arnaldo La Scala

Contatto : metmap@orbifly.com




FONTI E CREDITI :

   NOAA